sensor_id;sensor_type;location;lat;lon;timestamp;P1;durP1;ratioP1;P2;durP2;ratioP2
18296;SDS011;18066;52.106;5.534;2023-04-15T00:00:48;7.77;;;4.13;;
18296;SDS011;18066;52.106;5.534;2023-04-15T00:03:16;9.50;;;5.07;;
18296;SDS011;18066;52.106;5.534;2023-04-15T00:05:43;6.10;;;4.37;;
18296;SDS011;18066;52.106;5.534;2023-04-15T00:08:10;9.33;;;5.00;;
18296;SDS011;18066;52.106;5.534;2023-04-15T00:10:38;10.03;;;4.37;;
18296;SDS011;18066;52.106;5.534;2023-04-15T00:13:08;7.30;;;4.20;;
18296;SDS011;18066;52.106;5.534;2023-04-15T00:15:34;8.03;;;4.67;;
18296;SDS011;18066;52.106;5.534;2023-04-15T00:18:02;5.87;;;4.10;;
18296;SDS011;18066;52.106;5.534;2023-04-15T00:20:29;7.00;;;4.30;;
18296;SDS011;18066;52.106;5.534;2023-04-15T00:22:56;9.67;;;5.10;;
18296;SDS011;18066;52.106;5.534;2023-04-15T00:25:24;9.17;;;5.00;;
18296;SDS011;18066;52.106;5.534;2023-04-15T00:27:53;13.73;;;5.30;;
18296;SDS011;18066;52.106;5.534;2023-04-15T00:30:19;6.93;;;4.80;;
18296;SDS011;18066;52.106;5.534;2023-04-15T00:32:47;8.00;;;4.57;;
18296;SDS011;18066;52.106;5.534;2023-04-15T00:35:14;9.87;;;5.40;;
18296;SDS011;18066;52.106;5.534;2023-04-15T00:37:41;8.90;;;5.23;;
18296;SDS011;18066;52.106;5.534;2023-04-15T00:40:09;10.30;;;5.47;;
18296;SDS011;18066;52.106;5.534;2023-04-15T00:42:37;8.67;;;4.80;;
18296;SDS011;18066;52.106;5.534;2023-04-15T00:45:06;10.43;;;4.50;;
18296;SDS011;18066;52.106;5.534;2023-04-15T00:47:34;7.20;;;4.37;;
18296;SDS011;18066;52.106;5.534;2023-04-15T00:50:02;7.60;;;4.20;;
18296;SDS011;18066;52.106;5.534;2023-04-15T00:52:30;9.37;;;5.10;;
18296;SDS011;18066;52.106;5.534;2023-04-15T00:54:57;13.53;;;4.07;;
18296;SDS011;18066;52.106;5.534;2023-04-15T00:57:24;7.00;;;4.33;;
18296;SDS011;18066;52.106;5.534;2023-04-15T00:59:52;11.40;;;5.03;;
18296;SDS011;18066;52.106;5.534;2023-04-15T01:02:22;7.87;;;4.53;;
18296;SDS011;18066;52.106;5.534;2023-04-15T01:04:49;11.90;;;5.00;;
18296;SDS011;18066;52.106;5.534;2023-04-15T01:07:16;10.07;;;4.80;;
18296;SDS011;18066;52.106;5.534;2023-04-15T01:09:43;7.13;;;4.97;;
18296;SDS011;18066;52.106;5.534;2023-04-15T01:12:12;11.77;;;5.13;;
18296;SDS011;18066;52.106;5.534;2023-04-15T01:14:40;8.10;;;5.60;;
18296;SDS011;18066;52.106;5.534;2023-04-15T01:17:07;8.40;;;5.00;;
18296;SDS011;18066;52.106;5.534;2023-04-15T01:19:36;12.47;;;5.20;;
18296;SDS011;18066;52.106;5.534;2023-04-15T01:22:03;9.27;;;4.33;;
18296;SDS011;18066;52.106;5.534;2023-04-15T01:24:30;10.00;;;5.07;;
18296;SDS011;18066;52.106;5.534;2023-04-15T01:26:59;11.23;;;5.27;;
18296;SDS011;18066;52.106;5.534;2023-04-15T01:29:27;12.10;;;5.27;;
18296;SDS011;18066;52.106;5.534;2023-04-15T01:31:54;7.90;;;4.87;;
18296;SDS011;18066;52.106;5.534;2023-04-15T01:34:21;12.67;;;5.00;;
18296;SDS011;18066;52.106;5.534;2023-04-15T01:36:48;12.00;;;5.77;;
18296;SDS011;18066;52.106;5.534;2023-04-15T01:39:15;10.90;;;5.20;;
18296;SDS011;18066;52.106;5.534;2023-04-15T01:41:42;11.33;;;5.20;;
18296;SDS011;18066;52.106;5.534;2023-04-15T01:44:10;9.27;;;4.63;;
18296;SDS011;18066;52.106;5.534;2023-04-15T01:46:37;7.93;;;5.40;;
18296;SDS011;18066;52.106;5.534;2023-04-15T01:49:04;7.97;;;5.27;;
18296;SDS011;18066;52.106;5.534;2023-04-15T01:51:31;9.07;;;4.87;;
18296;SDS011;18066;52.106;5.534;2023-04-15T01:53:58;10.27;;;5.07;;
18296;SDS011;18066;52.106;5.534;2023-04-15T01:56:25;7.07;;;5.00;;
18296;SDS011;18066;52.106;5.534;2023-04-15T01:58:52;8.47;;;4.77;;
18296;SDS011;18066;52.106;5.534;2023-04-15T02:01:20;10.40;;;5.20;;
18296;SDS011;18066;52.106;5.534;2023-04-15T02:03:47;11.90;;;5.20;;
18296;SDS011;18066;52.106;5.534;2023-04-15T02:06:14;9.17;;;5.43;;
18296;SDS011;18066;52.106;5.534;2023-04-15T02:08:42;12.63;;;5.87;;
18296;SDS011;18066;52.106;5.534;2023-04-15T02:11:09;10.87;;;5.30;;
18296;SDS011;18066;52.106;5.534;2023-04-15T02:13:36;12.03;;;5.47;;
18296;SDS011;18066;52.106;5.534;2023-04-15T02:16:03;10.70;;;5.60;;
18296;SDS011;18066;52.106;5.534;2023-04-15T02:18:42;10.53;;;5.67;;
18296;SDS011;18066;52.106;5.534;2023-04-15T02:21:09;10.33;;;4.60;;
18296;SDS011;18066;52.106;5.534;2023-04-15T02:23:35;10.07;;;4.97;;
18296;SDS011;18066;52.106;5.534;2023-04-15T02:26:02;12.93;;;5.40;;
18296;SDS011;18066;52.106;5.534;2023-04-15T02:28:29;11.27;;;5.97;;
18296;SDS011;18066;52.106;5.534;2023-04-15T02:30:56;11.10;;;5.20;;
18296;SDS011;18066;52.106;5.534;2023-04-15T02:33:23;7.40;;;5.00;;
18296;SDS011;18066;52.106;5.534;2023-04-15T02:35:52;9.37;;;4.97;;
18296;SDS011;18066;52.106;5.534;2023-04-15T02:38:18;9.30;;;5.20;;
18296;SDS011;18066;52.106;5.534;2023-04-15T02:40:45;11.17;;;4.87;;
18296;SDS011;18066;52.106;5.534;2023-04-15T02:43:13;10.03;;;5.10;;
18296;SDS011;18066;52.106;5.534;2023-04-15T02:45:41;8.53;;;4.90;;
18296;SDS011;18066;52.106;5.534;2023-04-15T02:48:08;9.97;;;5.30;;
18296;SDS011;18066;52.106;5.534;2023-04-15T02:50:35;7.13;;;4.77;;
18296;SDS011;18066;52.106;5.534;2023-04-15T02:53:05;6.63;;;4.50;;
18296;SDS011;18066;52.106;5.534;2023-04-15T02:55:32;6.93;;;4.50;;
18296;SDS011;18066;52.106;5.534;2023-04-15T02:57:58;8.30;;;4.87;;
18296;SDS011;18066;52.106;5.534;2023-04-15T03:00:25;9.30;;;5.50;;
18296;SDS011;18066;52.106;5.534;2023-04-15T03:02:56;7.97;;;5.40;;
18296;SDS011;18066;52.106;5.534;2023-04-15T03:05:24;9.40;;;5.20;;
18296;SDS011;18066;52.106;5.534;2023-04-15T03:07:51;10.57;;;5.13;;
18296;SDS011;18066;52.106;5.534;2023-04-15T03:10:20;9.47;;;5.07;;
18296;SDS011;18066;52.106;5.534;2023-04-15T03:12:47;5.83;;;4.30;;
18296;SDS011;18066;52.106;5.534;2023-04-15T03:15:14;7.63;;;4.83;;
18296;SDS011;18066;52.106;5.534;2023-04-15T03:17:41;7.10;;;4.73;;
18296;SDS011;18066;52.106;5.534;2023-04-15T03:20:08;8.27;;;4.97;;
18296;SDS011;18066;52.106;5.534;2023-04-15T03:22:35;7.67;;;4.33;;
18296;SDS011;18066;52.106;5.534;2023-04-15T03:25:02;8.90;;;4.87;;
18296;SDS011;18066;52.106;5.534;2023-04-15T03:27:31;6.93;;;4.83;;
18296;SDS011;18066;52.106;5.534;2023-04-15T03:29:57;7.57;;;5.13;;
18296;SDS011;18066;52.106;5.534;2023-04-15T03:32:24;7.70;;;5.33;;
18296;SDS011;18066;52.106;5.534;2023-04-15T03:34:51;9.83;;;5.33;;
18296;SDS011;18066;52.106;5.534;2023-04-15T03:37:18;12.67;;;5.50;;
18296;SDS011;18066;52.106;5.534;2023-04-15T03:39:45;6.13;;;4.57;;
18296;SDS011;18066;52.106;5.534;2023-04-15T03:42:12;8.37;;;5.03;;
18296;SDS011;18066;52.106;5.534;2023-04-15T03:44:41;7.23;;;5.27;;
18296;SDS011;18066;52.106;5.534;2023-04-15T03:47:07;10.10;;;4.90;;
18296;SDS011;18066;52.106;5.534;2023-04-15T03:49:35;8.90;;;5.60;;
18296;SDS011;18066;52.106;5.534;2023-04-15T03:52:01;7.23;;;5.00;;
18296;SDS011;18066;52.106;5.534;2023-04-15T03:54:28;9.33;;;5.17;;
18296;SDS011;18066;52.106;5.534;2023-04-15T03:56:55;10.03;;;5.57;;
18296;SDS011;18066;52.106;5.534;2023-04-15T03:59:22;9.67;;;5.07;;
18296;SDS011;18066;52.106;5.534;2023-04-15T04:01:50;6.73;;;5.50;;
18296;SDS011;18066;52.106;5.534;2023-04-15T04:04:17;7.87;;;4.67;;
18296;SDS011;18066;52.106;5.534;2023-04-15T04:06:44;6.23;;;4.40;;
18296;SDS011;18066;52.106;5.534;2023-04-15T04:09:11;9.07;;;5.57;;
18296;SDS011;18066;52.106;5.534;2023-04-15T04:11:38;7.77;;;5.13;;
18296;SDS011;18066;52.106;5.534;2023-04-15T04:14:04;5.93;;;4.80;;
18296;SDS011;18066;52.106;5.534;2023-04-15T04:16:31;9.77;;;5.27;;
18296;SDS011;18066;52.106;5.534;2023-04-15T04:18:59;8.00;;;5.17;;
18296;SDS011;18066;52.106;5.534;2023-04-15T04:21:26;11.70;;;5.33;;
18296;SDS011;18066;52.106;5.534;2023-04-15T04:23:53;8.17;;;5.33;;
18296;SDS011;18066;52.106;5.534;2023-04-15T04:26:20;9.90;;;5.50;;
18296;SDS011;18066;52.106;5.534;2023-04-15T04:28:47;9.13;;;5.70;;
18296;SDS011;18066;52.106;5.534;2023-04-15T04:31:14;9.70;;;5.83;;
18296;SDS011;18066;52.106;5.534;2023-04-15T04:33:41;8.20;;;4.57;;
18296;SDS011;18066;52.106;5.534;2023-04-15T04:36:10;8.90;;;5.33;;
18296;SDS011;18066;52.106;5.534;2023-04-15T04:38:36;6.50;;;5.03;;
18296;SDS011;18066;52.106;5.534;2023-04-15T04:41:03;10.53;;;6.00;;
18296;SDS011;18066;52.106;5.534;2023-04-15T04:43:31;8.47;;;5.80;;
18296;SDS011;18066;52.106;5.534;2023-04-15T04:45:57;12.23;;;6.10;;
18296;SDS011;18066;52.106;5.534;2023-04-15T04:48:24;9.50;;;6.00;;
18296;SDS011;18066;52.106;5.534;2023-04-15T04:50:51;9.83;;;6.33;;
18296;SDS011;18066;52.106;5.534;2023-04-15T04:53:20;8.27;;;5.83;;
18296;SDS011;18066;52.106;5.534;2023-04-15T04:55:47;11.27;;;6.27;;
18296;SDS011;18066;52.106;5.534;2023-04-15T04:58:14;9.53;;;6.17;;
18296;SDS011;18066;52.106;5.534;2023-04-15T05:00:40;9.40;;;6.13;;
18296;SDS011;18066;52.106;5.534;2023-04-15T05:03:07;10.73;;;5.80;;
18296;SDS011;18066;52.106;5.534;2023-04-15T05:05:34;14.97;;;6.47;;
18296;SDS011;18066;52.106;5.534;2023-04-15T05:08:03;7.83;;;5.17;;
18296;SDS011;18066;52.106;5.534;2023-04-15T05:10:32;10.30;;;6.37;;
18296;SDS011;18066;52.106;5.534;2023-04-15T05:12:59;8.60;;;6.17;;
18296;SDS011;18066;52.106;5.534;2023-04-15T05:15:26;11.57;;;6.90;;
18296;SDS011;18066;52.106;5.534;2023-04-15T05:17:53;12.30;;;6.43;;
18296;SDS011;18066;52.106;5.534;2023-04-15T05:20:20;11.67;;;6.83;;
18296;SDS011;18066;52.106;5.534;2023-04-15T05:22:46;9.03;;;6.17;;
18296;SDS011;18066;52.106;5.534;2023-04-15T05:25:13;8.90;;;5.73;;
18296;SDS011;18066;52.106;5.534;2023-04-15T05:27:42;17.63;;;6.90;;
18296;SDS011;18066;52.106;5.534;2023-04-15T05:30:09;9.95;;;7.55;;
18296;SDS011;18066;52.106;5.534;2023-04-15T05:32:37;10.07;;;6.40;;
18296;SDS011;18066;52.106;5.534;2023-04-15T05:35:04;9.60;;;7.20;;
18296;SDS011;18066;52.106;5.534;2023-04-15T05:37:32;104.53;;;19.50;;
18296;SDS011;18066;52.106;5.534;2023-04-15T05:39:59;10.83;;;7.50;;
18296;SDS011;18066;52.106;5.534;2023-04-15T05:42:26;12.73;;;6.90;;
18296;SDS011;18066;52.106;5.534;2023-04-15T05:44:54;9.53;;;6.87;;
18296;SDS011;18066;52.106;5.534;2023-04-15T05:47:21;12.07;;;6.60;;
18296;SDS011;18066;52.106;5.534;2023-04-15T05:49:48;15.68;;;9.98;;
18296;SDS011;18066;52.106;5.534;2023-04-15T05:52:15;13.00;;;8.13;;
18296;SDS011;18066;52.106;5.534;2023-04-15T05:54:42;10.13;;;7.00;;
18296;SDS011;18066;52.106;5.534;2023-04-15T05:57:09;12.70;;;8.37;;
18296;SDS011;18066;52.106;5.534;2023-04-15T05:59:36;11.87;;;7.77;;
18296;SDS011;18066;52.106;5.534;2023-04-15T06:02:04;14.07;;;8.60;;
18296;SDS011;18066;52.106;5.534;2023-04-15T06:04:31;10.13;;;7.03;;
18296;SDS011;18066;52.106;5.534;2023-04-15T06:06:58;11.40;;;7.23;;
18296;SDS011;18066;52.106;5.534;2023-04-15T06:09:25;10.53;;;7.10;;
18296;SDS011;18066;52.106;5.534;2023-04-15T06:11:52;11.95;;;9.68;;
18296;SDS011;18066;52.106;5.534;2023-04-15T06:14:20;11.70;;;7.47;;
18296;SDS011;18066;52.106;5.534;2023-04-15T06:16:47;11.87;;;7.60;;
18296;SDS011;18066;52.106;5.534;2023-04-15T06:19:15;10.03;;;7.33;;
18296;SDS011;18066;52.106;5.534;2023-04-15T06:21:42;10.03;;;6.77;;
18296;SDS011;18066;52.106;5.534;2023-04-15T06:24:09;12.83;;;8.10;;
18296;SDS011;18066;52.106;5.534;2023-04-15T06:26:36;10.33;;;7.30;;
18296;SDS011;18066;52.106;5.534;2023-04-15T06:29:03;10.37;;;7.63;;
18296;SDS011;18066;52.106;5.534;2023-04-15T06:31:30;13.17;;;8.67;;
18296;SDS011;18066;52.106;5.534;2023-04-15T06:33:57;13.33;;;8.50;;
18296;SDS011;18066;52.106;5.534;2023-04-15T06:36:25;11.77;;;8.27;;
18296;SDS011;18066;52.106;5.534;2023-04-15T06:38:52;13.30;;;9.47;;
18296;SDS011;18066;52.106;5.534;2023-04-15T06:41:19;14.60;;;9.37;;
18296;SDS011;18066;52.106;5.534;2023-04-15T06:43:46;16.03;;;8.73;;
18296;SDS011;18066;52.106;5.534;2023-04-15T06:46:12;16.08;;;10.40;;
18296;SDS011;18066;52.106;5.534;2023-04-15T06:48:39;13.77;;;9.80;;
18296;SDS011;18066;52.106;5.534;2023-04-15T06:51:06;14.23;;;9.13;;
18296;SDS011;18066;52.106;5.534;2023-04-15T06:53:34;13.10;;;9.10;;
18296;SDS011;18066;52.106;5.534;2023-04-15T06:56:05;12.67;;;8.73;;
18296;SDS011;18066;52.106;5.534;2023-04-15T06:58:33;11.60;;;8.53;;
18296;SDS011;18066;52.106;5.534;2023-04-15T07:01:00;14.23;;;8.43;;
18296;SDS011;18066;52.106;5.534;2023-04-15T07:03:27;14.93;;;9.57;;
18296;SDS011;18066;52.106;5.534;2023-04-15T07:05:54;14.63;;;9.40;;
18296;SDS011;18066;52.106;5.534;2023-04-15T07:08:21;12.77;;;8.93;;
18296;SDS011;18066;52.106;5.534;2023-04-15T07:10:49;14.20;;;8.67;;
18296;SDS011;18066;52.106;5.534;2023-04-15T07:13:16;14.67;;;8.93;;
18296;SDS011;18066;52.106;5.534;2023-04-15T07:15:43;12.40;;;8.27;;
18296;SDS011;18066;52.106;5.534;2023-04-15T07:18:10;13.70;;;8.83;;
18296;SDS011;18066;52.106;5.534;2023-04-15T07:20:37;14.70;;;8.83;;
18296;SDS011;18066;52.106;5.534;2023-04-15T07:23:04;17.07;;;9.07;;
18296;SDS011;18066;52.106;5.534;2023-04-15T07:25:32;15.13;;;10.98;;
18296;SDS011;18066;52.106;5.534;2023-04-15T07:28:00;13.87;;;9.03;;
18296;SDS011;18066;52.106;5.534;2023-04-15T07:30:26;14.20;;;8.70;;
18296;SDS011;18066;52.106;5.534;2023-04-15T07:32:54;12.27;;;7.77;;
18296;SDS011;18066;52.106;5.534;2023-04-15T07:35:21;11.50;;;7.50;;
18296;SDS011;18066;52.106;5.534;2023-04-15T07:37:49;10.93;;;7.00;;
18296;SDS011;18066;52.106;5.534;2023-04-15T07:40:16;12.17;;;7.50;;
18296;SDS011;18066;52.106;5.534;2023-04-15T07:42:43;9.20;;;6.43;;
18296;SDS011;18066;52.106;5.534;2023-04-15T07:45:12;10.70;;;6.67;;
18296;SDS011;18066;52.106;5.534;2023-04-15T07:47:39;8.30;;;5.50;;
18296;SDS011;18066;52.106;5.534;2023-04-15T07:50:07;8.43;;;5.73;;
18296;SDS011;18066;52.106;5.534;2023-04-15T07:52:35;8.60;;;5.30;;
18296;SDS011;18066;52.106;5.534;2023-04-15T07:55:03;5.93;;;4.60;;
18296;SDS011;18066;52.106;5.534;2023-04-15T07:57:32;8.30;;;5.33;;
18296;SDS011;18066;52.106;5.534;2023-04-15T07:59:59;10.33;;;5.20;;
18296;SDS011;18066;52.106;5.534;2023-04-15T08:02:28;10.00;;;5.30;;
18296;SDS011;18066;52.106;5.534;2023-04-15T08:04:55;9.07;;;5.83;;
18296;SDS011;18066;52.106;5.534;2023-04-15T08:07:22;8.27;;;5.90;;
18296;SDS011;18066;52.106;5.534;2023-04-15T08:09:50;8.50;;;5.60;;
18296;SDS011;18066;52.106;5.534;2023-04-15T08:12:17;7.00;;;5.43;;
18296;SDS011;18066;52.106;5.534;2023-04-15T08:14:44;8.70;;;5.03;;
18296;SDS011;18066;52.106;5.534;2023-04-15T08:17:11;9.57;;;5.40;;
18296;SDS011;18066;52.106;5.534;2023-04-15T08:19:39;6.90;;;4.27;;
18296;SDS011;18066;52.106;5.534;2023-04-15T08:22:06;7.03;;;4.83;;
18296;SDS011;18066;52.106;5.534;2023-04-15T08:24:33;9.70;;;4.40;;
18296;SDS011;18066;52.106;5.534;2023-04-15T08:27:00;6.73;;;4.13;;
18296;SDS011;18066;52.106;5.534;2023-04-15T08:29:28;7.77;;;4.57;;
18296;SDS011;18066;52.106;5.534;2023-04-15T08:31:55;7.53;;;4.13;;
18296;SDS011;18066;52.106;5.534;2023-04-15T08:34:22;5.33;;;3.80;;
18296;SDS011;18066;52.106;5.534;2023-04-15T08:36:51;7.13;;;4.37;;
18296;SDS011;18066;52.106;5.534;2023-04-15T08:39:17;6.27;;;4.30;;
18296;SDS011;18066;52.106;5.534;2023-04-15T08:41:45;9.27;;;4.50;;
18296;SDS011;18066;52.106;5.534;2023-04-15T08:44:13;5.30;;;3.90;;
18296;SDS011;18066;52.106;5.534;2023-04-15T08:46:40;6.17;;;3.80;;
18296;SDS011;18066;52.106;5.534;2023-04-15T08:49:09;5.50;;;3.80;;
18296;SDS011;18066;52.106;5.534;2023-04-15T08:51:37;5.30;;;3.50;;
18296;SDS011;18066;52.106;5.534;2023-04-15T08:54:06;6.27;;;3.70;;
18296;SDS011;18066;52.106;5.534;2023-04-15T08:56:34;4.13;;;2.97;;
18296;SDS011;18066;52.106;5.534;2023-04-15T08:59:02;3.63;;;2.83;;
18296;SDS011;18066;52.106;5.534;2023-04-15T09:01:29;3.77;;;3.27;;
18296;SDS011;18066;52.106;5.534;2023-04-15T09:03:58;4.20;;;3.23;;
18296;SDS011;18066;52.106;5.534;2023-04-15T09:06:25;5.73;;;3.20;;
18296;SDS011;18066;52.106;5.534;2023-04-15T09:08:52;4.40;;;3.33;;
18296;SDS011;18066;52.106;5.534;2023-04-15T09:11:20;5.73;;;3.40;;
18296;SDS011;18066;52.106;5.534;2023-04-15T09:13:47;5.90;;;3.43;;
18296;SDS011;18066;52.106;5.534;2023-04-15T09:16:14;4.13;;;3.03;;
18296;SDS011;18066;52.106;5.534;2023-04-15T09:18:41;8.30;;;3.93;;
18296;SDS011;18066;52.106;5.534;2023-04-15T09:21:09;5.70;;;3.67;;
18296;SDS011;18066;52.106;5.534;2023-04-15T09:23:37;7.50;;;3.90;;
18296;SDS011;18066;52.106;5.534;2023-04-15T09:26:05;6.70;;;4.20;;
18296;SDS011;18066;52.106;5.534;2023-04-15T09:28:34;6.33;;;3.80;;
18296;SDS011;18066;52.106;5.534;2023-04-15T09:31:07;6.37;;;4.60;;
18296;SDS011;18066;52.106;5.534;2023-04-15T09:33:34;7.53;;;4.30;;
18296;SDS011;18066;52.106;5.534;2023-04-15T09:36:02;8.30;;;4.57;;
18296;SDS011;18066;52.106;5.534;2023-04-15T09:38:31;8.80;;;4.90;;
18296;SDS011;18066;52.106;5.534;2023-04-15T09:40:58;5.57;;;3.90;;
18296;SDS011;18066;52.106;5.534;2023-04-15T09:43:37;7.10;;;4.57;;
18296;SDS011;18066;52.106;5.534;2023-04-15T09:46:05;5.93;;;3.83;;
18296;SDS011;18066;52.106;5.534;2023-04-15T09:48:32;5.10;;;3.20;;
18296;SDS011;18066;52.106;5.534;2023-04-15T09:50:59;4.57;;;2.93;;
18296;SDS011;18066;52.106;5.534;2023-04-15T09:53:27;3.47;;;1.95;;
18296;SDS011;18066;52.106;5.534;2023-04-15T09:55:54;4.63;;;2.07;;
18296;SDS011;18066;52.106;5.534;2023-04-15T09:58:23;1.60;;;1.40;;
18296;SDS011;18066;52.106;5.534;2023-04-15T10:00:52;2.33;;;1.70;;
18296;SDS011;18066;52.106;5.534;2023-04-15T10:03:20;4.57;;;2.10;;
18296;SDS011;18066;52.106;5.534;2023-04-15T10:05:49;6.13;;;2.03;;
18296;SDS011;18066;52.106;5.534;2023-04-15T10:08:18;3.77;;;2.27;;
18296;SDS011;18066;52.106;5.534;2023-04-15T10:10:46;8.17;;;3.13;;
18296;SDS011;18066;52.106;5.534;2023-04-15T10:13:13;6.43;;;3.20;;
18296;SDS011;18066;52.106;5.534;2023-04-15T10:15:43;6.37;;;3.77;;
18296;SDS011;18066;52.106;5.534;2023-04-15T10:18:15;5.73;;;3.47;;
18296;SDS011;18066;52.106;5.534;2023-04-15T10:20:45;4.13;;;3.43;;
18296;SDS011;18066;52.106;5.534;2023-04-15T10:23:13;8.13;;;3.67;;
18296;SDS011;18066;52.106;5.534;2023-04-15T10:25:41;5.07;;;3.03;;
18296;SDS011;18066;52.106;5.534;2023-04-15T10:28:09;6.03;;;3.40;;
18296;SDS011;18066;52.106;5.534;2023-04-15T10:30:37;4.37;;;2.90;;
18296;SDS011;18066;52.106;5.534;2023-04-15T10:33:04;4.37;;;3.27;;
18296;SDS011;18066;52.106;5.534;2023-04-15T10:35:35;6.10;;;3.70;;
18296;SDS011;18066;52.106;5.534;2023-04-15T10:38:07;4.50;;;3.33;;
18296;SDS011;18066;52.106;5.534;2023-04-15T10:41:15;4.30;;;2.57;;
18296;SDS011;18066;52.106;5.534;2023-04-15T10:43:47;3.97;;;2.93;;
18296;SDS011;18066;52.106;5.534;2023-04-15T10:46:17;5.13;;;3.03;;
18296;SDS011;18066;52.106;5.534;2023-04-15T10:48:46;4.00;;;3.10;;
18296;SDS011;18066;52.106;5.534;2023-04-15T10:51:14;6.20;;;3.27;;
18296;SDS011;18066;52.106;5.534;2023-04-15T10:53:42;6.33;;;3.63;;
18296;SDS011;18066;52.106;5.534;2023-04-15T10:56:09;5.10;;;3.40;;
18296;SDS011;18066;52.106;5.534;2023-04-15T10:58:40;5.37;;;3.53;;
18296;SDS011;18066;52.106;5.534;2023-04-15T11:01:07;4.47;;;3.30;;
18296;SDS011;18066;52.106;5.534;2023-04-15T11:03:35;7.23;;;3.70;;
18296;SDS011;18066;52.106;5.534;2023-04-15T11:06:04;4.30;;;3.23;;
18296;SDS011;18066;52.106;5.534;2023-04-15T11:11:23;5.23;;;2.90;;
18296;SDS011;18066;52.106;5.534;2023-04-15T11:14:30;3.50;;;2.87;;
18296;SDS011;18066;52.106;5.534;2023-04-15T11:16:58;5.97;;;3.20;;
18296;SDS011;18066;52.106;5.534;2023-04-15T11:19:25;4.33;;;2.87;;
18296;SDS011;18066;52.106;5.534;2023-04-15T11:22:05;7.23;;;3.47;;
18296;SDS011;18066;52.106;5.534;2023-04-15T11:24:32;4.77;;;3.20;;
18296;SDS011;18066;52.106;5.534;2023-04-15T11:27:00;3.07;;;2.77;;
18296;SDS011;18066;52.106;5.534;2023-04-15T11:29:29;4.27;;;3.03;;
18296;SDS011;18066;52.106;5.534;2023-04-15T11:32:07;2.90;;;2.17;;
18296;SDS011;18066;52.106;5.534;2023-04-15T11:34:34;4.77;;;2.50;;
18296;SDS011;18066;52.106;5.534;2023-04-15T11:37:02;3.80;;;2.50;;
18296;SDS011;18066;52.106;5.534;2023-04-15T11:39:30;3.53;;;3.00;;
18296;SDS011;18066;52.106;5.534;2023-04-15T11:41:57;2.90;;;2.60;;
18296;SDS011;18066;52.106;5.534;2023-04-15T11:44:24;4.13;;;2.77;;
18296;SDS011;18066;52.106;5.534;2023-04-15T11:46:53;4.73;;;2.87;;
18296;SDS011;18066;52.106;5.534;2023-04-15T11:49:27;7.13;;;3.00;;
18296;SDS011;18066;52.106;5.534;2023-04-15T11:51:54;7.13;;;2.50;;
18296;SDS011;18066;52.106;5.534;2023-04-15T11:54:21;5.23;;;2.77;;
18296;SDS011;18066;52.106;5.534;2023-04-15T11:56:51;3.20;;;2.47;;
18296;SDS011;18066;52.106;5.534;2023-04-15T11:59:18;6.33;;;3.03;;
18296;SDS011;18066;52.106;5.534;2023-04-15T12:01:45;5.73;;;2.53;;
18296;SDS011;18066;52.106;5.534;2023-04-15T12:04:14;5.40;;;2.93;;
18296;SDS011;18066;52.106;5.534;2023-04-15T12:06:44;2.93;;;1.93;;
18296;SDS011;18066;52.106;5.534;2023-04-15T12:09:11;4.53;;;2.10;;
18296;SDS011;18066;52.106;5.534;2023-04-15T12:11:39;3.20;;;2.50;;
18296;SDS011;18066;52.106;5.534;2023-04-15T12:14:08;5.77;;;3.33;;
18296;SDS011;18066;52.106;5.534;2023-04-15T12:16:38;5.40;;;2.10;;
18296;SDS011;18066;52.106;5.534;2023-04-15T12:19:08;3.93;;;1.77;;
18296;SDS011;18066;52.106;5.534;2023-04-15T12:21:38;3.80;;;1.40;;
18296;SDS011;18066;52.106;5.534;2023-04-15T12:24:06;3.33;;;2.10;;
18296;SDS011;18066;52.106;5.534;2023-04-15T12:26:35;4.17;;;2.23;;
18296;SDS011;18066;52.106;5.534;2023-04-15T12:29:04;2.43;;;1.57;;
18296;SDS011;18066;52.106;5.534;2023-04-15T12:31:32;3.27;;;2.17;;
18296;SDS011;18066;52.106;5.534;2023-04-15T12:34:00;3.57;;;1.67;;
18296;SDS011;18066;52.106;5.534;2023-04-15T12:36:28;2.37;;;1.60;;
18296;SDS011;18066;52.106;5.534;2023-04-15T12:39:01;2.70;;;1.53;;
18296;SDS011;18066;52.106;5.534;2023-04-15T12:41:29;7.15;;;4.03;;
18296;SDS011;18066;52.106;5.534;2023-04-15T12:43:56;3.87;;;2.37;;
18296;SDS011;18066;52.106;5.534;2023-04-15T12:46:22;2.70;;;1.40;;
18296;SDS011;18066;52.106;5.534;2023-04-15T12:48:49;1.47;;;1.30;;
18296;SDS011;18066;52.106;5.534;2023-04-15T12:51:17;7.37;;;4.20;;
18296;SDS011;18066;52.106;5.534;2023-04-15T12:53:45;3.13;;;2.27;;
18296;SDS011;18066;52.106;5.534;2023-04-15T12:56:13;3.63;;;1.93;;
18296;SDS011;18066;52.106;5.534;2023-04-15T12:58:40;3.57;;;2.47;;
18296;SDS011;18066;52.106;5.534;2023-04-15T13:01:07;3.30;;;1.30;;
18296;SDS011;18066;52.106;5.534;2023-04-15T13:03:35;8.73;;;4.57;;
18296;SDS011;18066;52.106;5.534;2023-04-15T13:06:02;1.93;;;1.47;;
18296;SDS011;18066;52.106;5.534;2023-04-15T13:08:29;7.83;;;2.83;;
18296;SDS011;18066;52.106;5.534;2023-04-15T13:10:56;3.13;;;1.80;;
18296;SDS011;18066;52.106;5.534;2023-04-15T13:13:25;2.13;;;1.50;;
18296;SDS011;18066;52.106;5.534;2023-04-15T13:15:52;1.97;;;1.20;;
18296;SDS011;18066;52.106;5.534;2023-04-15T13:18:19;3.33;;;1.47;;
18296;SDS011;18066;52.106;5.534;2023-04-15T13:20:47;1.17;;;1.03;;
18296;SDS011;18066;52.106;5.534;2023-04-15T13:23:14;3.10;;;1.50;;
18296;SDS011;18066;52.106;5.534;2023-04-15T13:25:41;2.13;;;1.30;;
18296;SDS011;18066;52.106;5.534;2023-04-15T13:28:08;2.10;;;1.10;;
18296;SDS011;18066;52.106;5.534;2023-04-15T13:30:37;5.10;;;1.50;;
18296;SDS011;18066;52.106;5.534;2023-04-15T13:33:05;3.10;;;1.30;;
18296;SDS011;18066;52.106;5.534;2023-04-15T13:35:31;8.80;;;1.30;;
18296;SDS011;18066;52.106;5.534;2023-04-15T13:37:58;3.03;;;0.97;;
18296;SDS011;18066;52.106;5.534;2023-04-15T13:40:25;2.23;;;0.90;;
18296;SDS011;18066;52.106;5.534;2023-04-15T13:42:52;1.40;;;0.90;;
18296;SDS011;18066;52.106;5.534;2023-04-15T13:45:20;4.73;;;1.50;;
18296;SDS011;18066;52.106;5.534;2023-04-15T13:47:48;3.17;;;1.13;;
18296;SDS011;18066;52.106;5.534;2023-04-15T13:50:15;3.10;;;1.73;;
18296;SDS011;18066;52.106;5.534;2023-04-15T13:52:42;3.27;;;1.50;;
18296;SDS011;18066;52.106;5.534;2023-04-15T13:55:09;3.45;;;1.42;;
18296;SDS011;18066;52.106;5.534;2023-04-15T13:57:35;0.87;;;0.87;;
18296;SDS011;18066;52.106;5.534;2023-04-15T14:00:03;1.77;;;1.00;;
18296;SDS011;18066;52.106;5.534;2023-04-15T14:02:30;2.03;;;1.07;;
18296;SDS011;18066;52.106;5.534;2023-04-15T14:04:58;3.40;;;1.00;;
18296;SDS011;18066;52.106;5.534;2023-04-15T14:07:25;2.77;;;1.17;;
18296;SDS011;18066;52.106;5.534;2023-04-15T14:09:54;2.73;;;1.17;;
18296;SDS011;18066;52.106;5.534;2023-04-15T14:12:21;2.40;;;1.33;;
18296;SDS011;18066;52.106;5.534;2023-04-15T14:14:47;1.83;;;1.20;;
18296;SDS011;18066;52.106;5.534;2023-04-15T14:17:14;3.05;;;1.30;;
18296;SDS011;18066;52.106;5.534;2023-04-15T14:19:41;2.13;;;1.27;;
18296;SDS011;18066;52.106;5.534;2023-04-15T14:22:09;2.43;;;1.30;;
18296;SDS011;18066;52.106;5.534;2023-04-15T14:24:36;4.28;;;1.52;;
18296;SDS011;18066;52.106;5.534;2023-04-15T14:27:03;4.33;;;1.60;;
18296;SDS011;18066;52.106;5.534;2023-04-15T14:29:29;2.60;;;1.23;;
18296;SDS011;18066;52.106;5.534;2023-04-15T14:31:56;4.93;;;1.43;;
18296;SDS011;18066;52.106;5.534;2023-04-15T14:34:23;3.27;;;1.23;;
18296;SDS011;18066;52.106;5.534;2023-04-15T14:36:50;5.07;;;1.40;;
18296;SDS011;18066;52.106;5.534;2023-04-15T14:39:18;6.25;;;2.00;;
18296;SDS011;18066;52.106;5.534;2023-04-15T14:41:45;4.83;;;1.10;;
18296;SDS011;18066;52.106;5.534;2023-04-15T14:44:12;5.53;;;1.60;;
18296;SDS011;18066;52.106;5.534;2023-04-15T14:46:39;6.57;;;1.53;;
18296;SDS011;18066;52.106;5.534;2023-04-15T14:49:06;2.53;;;1.27;;